sensor_id;sensor_type;location;lat;lon;timestamp;temperature;humidity
25732;DHT22;13585;50.864;4.406;2023-09-08T00:01:33;28.90;58.60
25732;DHT22;13585;50.864;4.406;2023-09-08T00:03:58;28.90;58.60
25732;DHT22;13585;50.864;4.406;2023-09-08T00:06:24;28.90;58.50
25732;DHT22;13585;50.864;4.406;2023-09-08T00:08:50;28.90;58.50
25732;DHT22;13585;50.864;4.406;2023-09-08T00:11:15;28.90;58.50
25732;DHT22;13585;50.864;4.406;2023-09-08T00:13:41;28.90;58.50
25732;DHT22;13585;50.864;4.406;2023-09-08T00:16:07;30.30;60.70
25732;DHT22;13585;50.864;4.406;2023-09-08T00:18:35;28.90;58.40
25732;DHT22;13585;50.864;4.406;2023-09-08T00:21:01;28.90;58.40
25732;DHT22;13585;50.864;4.406;2023-09-08T00:23:26;28.90;58.40
25732;DHT22;13585;50.864;4.406;2023-09-08T00:25:53;28.90;58.40
25732;DHT22;13585;50.864;4.406;2023-09-08T00:28:19;28.90;58.40
25732;DHT22;13585;50.864;4.406;2023-09-08T00:30:45;28.90;58.40
25732;DHT22;13585;50.864;4.406;2023-09-08T00:33:10;28.90;58.30
25732;DHT22;13585;50.864;4.406;2023-09-08T00:35:38;28.90;58.30
25732;DHT22;13585;50.864;4.406;2023-09-08T00:38:04;28.90;58.30
25732;DHT22;13585;50.864;4.406;2023-09-08T00:40:30;28.90;58.30
25732;DHT22;13585;50.864;4.406;2023-09-08T00:42:55;28.90;58.90
25732;DHT22;13585;50.864;4.406;2023-09-08T00:45:21;28.90;58.20
25732;DHT22;13585;50.864;4.406;2023-09-08T00:47:48;28.90;58.20
25732;DHT22;13585;50.864;4.406;2023-09-08T00:50:13;28.90;58.20
25732;DHT22;13585;50.864;4.406;2023-09-08T00:52:39;28.90;58.20
25732;DHT22;13585;50.864;4.406;2023-09-08T00:55:05;28.90;58.10
25732;DHT22;13585;50.864;4.406;2023-09-08T00:57:32;28.90;58.10
25732;DHT22;13585;50.864;4.406;2023-09-08T00:59:57;28.90;58.10
25732;DHT22;13585;50.864;4.406;2023-09-08T01:02:23;28.90;58.10
25732;DHT22;13585;50.864;4.406;2023-09-08T01:04:49;28.90;58.10
25732;DHT22;13585;50.864;4.406;2023-09-08T01:07:15;28.90;58.10
25732;DHT22;13585;50.864;4.406;2023-09-08T01:09:41;28.90;58.10
25732;DHT22;13585;50.864;4.406;2023-09-08T01:12:08;28.90;58.00
25732;DHT22;13585;50.864;4.406;2023-09-08T01:14:43;28.90;58.00
25732;DHT22;13585;50.864;4.406;2023-09-08T01:17:08;28.90;58.00
25732;DHT22;13585;50.864;4.406;2023-09-08T01:19:34;28.90;58.00
25732;DHT22;13585;50.864;4.406;2023-09-08T01:27:12;28.90;58.00
25732;DHT22;13585;50.864;4.406;2023-09-08T01:29:40;28.80;57.90
25732;DHT22;13585;50.864;4.406;2023-09-08T01:32:07;28.90;58.00
25732;DHT22;13585;50.864;4.406;2023-09-08T01:34:34;28.80;58.00
25732;DHT22;13585;50.864;4.406;2023-09-08T01:37:02;28.80;57.90
25732;DHT22;13585;50.864;4.406;2023-09-08T01:39:29;28.80;57.90
25732;DHT22;13585;50.864;4.406;2023-09-08T01:41:58;28.80;57.90
25732;DHT22;13585;50.864;4.406;2023-09-08T01:44:23;28.80;57.90
25732;DHT22;13585;50.864;4.406;2023-09-08T01:46:49;28.90;57.90
25732;DHT22;13585;50.864;4.406;2023-09-08T01:49:16;28.80;57.80
25732;DHT22;13585;50.864;4.406;2023-09-08T01:51:42;28.80;57.80
25732;DHT22;13585;50.864;4.406;2023-09-08T01:54:08;28.90;57.80
25732;DHT22;13585;50.864;4.406;2023-09-08T01:56:33;28.90;57.80
25732;DHT22;13585;50.864;4.406;2023-09-08T01:58:59;28.90;57.70
25732;DHT22;13585;50.864;4.406;2023-09-08T02:01:25;28.90;58.00
25732;DHT22;13585;50.864;4.406;2023-09-08T02:03:50;28.90;57.70
25732;DHT22;13585;50.864;4.406;2023-09-08T02:06:16;28.90;57.70
25732;DHT22;13585;50.864;4.406;2023-09-08T02:08:42;28.90;57.70
25732;DHT22;13585;50.864;4.406;2023-09-08T02:11:07;28.90;57.70
25732;DHT22;13585;50.864;4.406;2023-09-08T02:13:33;28.90;57.60
25732;DHT22;13585;50.864;4.406;2023-09-08T02:15:58;28.90;57.60
25732;DHT22;13585;50.864;4.406;2023-09-08T02:18:25;28.90;57.60
25732;DHT22;13585;50.864;4.406;2023-09-08T02:20:51;28.80;57.50
25732;DHT22;13585;50.864;4.406;2023-09-08T02:23:16;28.80;57.50
25732;DHT22;13585;50.864;4.406;2023-09-08T02:25:42;28.80;57.50
25732;DHT22;13585;50.864;4.406;2023-09-08T02:28:08;28.80;57.50
25732;DHT22;13585;50.864;4.406;2023-09-08T02:30:33;28.90;57.60
25732;DHT22;13585;50.864;4.406;2023-09-08T02:32:59;28.80;57.50
25732;DHT22;13585;50.864;4.406;2023-09-08T02:35:25;28.80;57.40
25732;DHT22;13585;50.864;4.406;2023-09-08T02:37:50;28.80;57.40
25732;DHT22;13585;50.864;4.406;2023-09-08T02:40:16;28.80;57.40
25732;DHT22;13585;50.864;4.406;2023-09-08T02:42:41;28.80;57.40
25732;DHT22;13585;50.864;4.406;2023-09-08T02:45:07;28.80;57.40
25732;DHT22;13585;50.864;4.406;2023-09-08T02:47:33;28.80;57.40
25732;DHT22;13585;50.864;4.406;2023-09-08T02:49:58;28.80;58.00
25732;DHT22;13585;50.864;4.406;2023-09-08T02:52:24;28.80;57.30
25732;DHT22;13585;50.864;4.406;2023-09-08T02:54:50;28.80;57.30
25732;DHT22;13585;50.864;4.406;2023-09-08T02:57:15;28.80;57.30
25732;DHT22;13585;50.864;4.406;2023-09-08T02:59:41;28.80;57.30
25732;DHT22;13585;50.864;4.406;2023-09-08T03:02:06;28.80;57.30
25732;DHT22;13585;50.864;4.406;2023-09-08T03:04:32;28.80;57.30
25732;DHT22;13585;50.864;4.406;2023-09-08T03:06:57;28.80;57.30
25732;DHT22;13585;50.864;4.406;2023-09-08T03:09:23;28.80;57.30
25732;DHT22;13585;50.864;4.406;2023-09-08T03:11:49;28.80;57.20
25732;DHT22;13585;50.864;4.406;2023-09-08T03:14:14;28.80;57.20
25732;DHT22;13585;50.864;4.406;2023-09-08T03:16:40;28.80;57.20
25732;DHT22;13585;50.864;4.406;2023-09-08T03:19:05;28.80;57.20
25732;DHT22;13585;50.864;4.406;2023-09-08T03:21:31;28.80;57.80
25732;DHT22;13585;50.864;4.406;2023-09-08T03:23:57;28.80;57.20
25732;DHT22;13585;50.864;4.406;2023-09-08T03:26:22;28.80;57.20
25732;DHT22;13585;50.864;4.406;2023-09-08T03:28:48;28.80;57.20
25732;DHT22;13585;50.864;4.406;2023-09-08T03:31:13;28.80;57.20
25732;DHT22;13585;50.864;4.406;2023-09-08T03:33:39;28.80;57.20
25732;DHT22;13585;50.864;4.406;2023-09-08T03:36:05;28.80;57.10
25732;DHT22;13585;50.864;4.406;2023-09-08T03:38:30;28.80;57.10
25732;DHT22;13585;50.864;4.406;2023-09-08T03:40:56;28.80;57.10
25732;DHT22;13585;50.864;4.406;2023-09-08T03:43:21;28.80;57.00
25732;DHT22;13585;50.864;4.406;2023-09-08T03:45:47;28.80;57.00
25732;DHT22;13585;50.864;4.406;2023-09-08T03:48:13;28.80;57.00
25732;DHT22;13585;50.864;4.406;2023-09-08T03:50:38;28.80;57.00
25732;DHT22;13585;50.864;4.406;2023-09-08T03:53:04;28.70;57.00
25732;DHT22;13585;50.864;4.406;2023-09-08T03:55:30;28.80;57.00
25732;DHT22;13585;50.864;4.406;2023-09-08T03:57:55;28.80;57.00
25732;DHT22;13585;50.864;4.406;2023-09-08T04:00:21;28.80;57.00
25732;DHT22;13585;50.864;4.406;2023-09-08T04:02:50;28.80;56.90
25732;DHT22;13585;50.864;4.406;2023-09-08T04:05:16;28.80;56.90
25732;DHT22;13585;50.864;4.406;2023-09-08T04:07:46;28.80;56.90
25732;DHT22;13585;50.864;4.406;2023-09-08T04:10:12;28.80;56.90
25732;DHT22;13585;50.864;4.406;2023-09-08T04:12:39;28.80;56.90
25732;DHT22;13585;50.864;4.406;2023-09-08T04:15:05;28.80;56.90
25732;DHT22;13585;50.864;4.406;2023-09-08T04:17:30;28.80;56.90
25732;DHT22;13585;50.864;4.406;2023-09-08T04:19:56;28.70;56.80
25732;DHT22;13585;50.864;4.406;2023-09-08T04:22:22;28.80;56.80
25732;DHT22;13585;50.864;4.406;2023-09-08T04:24:47;28.80;56.80
25732;DHT22;13585;50.864;4.406;2023-09-08T04:27:13;28.80;56.80
25732;DHT22;13585;50.864;4.406;2023-09-08T04:29:38;28.80;56.80
25732;DHT22;13585;50.864;4.406;2023-09-08T04:32:04;28.80;56.80
25732;DHT22;13585;50.864;4.406;2023-09-08T04:34:36;28.80;56.80
25732;DHT22;13585;50.864;4.406;2023-09-08T04:37:02;28.80;56.80
25732;DHT22;13585;50.864;4.406;2023-09-08T04:39:28;28.80;56.80
25732;DHT22;13585;50.864;4.406;2023-09-08T04:41:53;28.70;56.70
25732;DHT22;13585;50.864;4.406;2023-09-08T04:44:19;28.70;56.80
25732;DHT22;13585;50.864;4.406;2023-09-08T04:46:45;28.80;56.80
25732;DHT22;13585;50.864;4.406;2023-09-08T04:49:11;28.70;56.70
25732;DHT22;13585;50.864;4.406;2023-09-08T04:51:36;28.80;56.80
25732;DHT22;13585;50.864;4.406;2023-09-08T04:54:02;28.70;56.70
25732;DHT22;13585;50.864;4.406;2023-09-08T04:56:28;28.70;56.70
25732;DHT22;13585;50.864;4.406;2023-09-08T04:58:54;28.80;56.70
25732;DHT22;13585;50.864;4.406;2023-09-08T05:01:20;28.80;56.70
25732;DHT22;13585;50.864;4.406;2023-09-08T05:03:46;28.70;56.70
25732;DHT22;13585;50.864;4.406;2023-09-08T05:06:11;28.70;56.60
25732;DHT22;13585;50.864;4.406;2023-09-08T05:08:39;28.70;56.20
25732;DHT22;13585;50.864;4.406;2023-09-08T05:11:04;28.70;56.60
25732;DHT22;13585;50.864;4.406;2023-09-08T05:13:30;28.70;56.80
25732;DHT22;13585;50.864;4.406;2023-09-08T05:15:56;28.70;56.70
25732;DHT22;13585;50.864;4.406;2023-09-08T05:18:28;28.70;56.70
25732;DHT22;13585;50.864;4.406;2023-09-08T05:20:54;28.60;56.70
25732;DHT22;13585;50.864;4.406;2023-09-08T05:23:19;28.60;56.70
25732;DHT22;13585;50.864;4.406;2023-09-08T05:25:45;28.70;56.70
25732;DHT22;13585;50.864;4.406;2023-09-08T05:28:11;28.70;56.70
25732;DHT22;13585;50.864;4.406;2023-09-08T05:30:36;28.70;56.80
25732;DHT22;13585;50.864;4.406;2023-09-08T05:33:02;28.70;56.70
25732;DHT22;13585;50.864;4.406;2023-09-08T05:35:28;28.70;56.60
25732;DHT22;13585;50.864;4.406;2023-09-08T05:37:53;28.70;56.70
25732;DHT22;13585;50.864;4.406;2023-09-08T05:40:19;28.70;56.70
25732;DHT22;13585;50.864;4.406;2023-09-08T05:42:46;28.70;56.70
25732;DHT22;13585;50.864;4.406;2023-09-08T05:45:12;28.70;56.70
25732;DHT22;13585;50.864;4.406;2023-09-08T05:47:37;28.70;56.70
25732;DHT22;13585;50.864;4.406;2023-09-08T05:50:03;28.70;56.80
25732;DHT22;13585;50.864;4.406;2023-09-08T05:52:29;28.70;56.70
25732;DHT22;13585;50.864;4.406;2023-09-08T05:54:54;28.70;56.80
25732;DHT22;13585;50.864;4.406;2023-09-08T05:57:20;28.70;56.80
25732;DHT22;13585;50.864;4.406;2023-09-08T05:59:45;28.70;56.80
25732;DHT22;13585;50.864;4.406;2023-09-08T06:02:11;28.70;56.80
25732;DHT22;13585;50.864;4.406;2023-09-08T06:04:37;28.70;56.90
25732;DHT22;13585;50.864;4.406;2023-09-08T06:07:02;28.70;56.80
25732;DHT22;13585;50.864;4.406;2023-09-08T06:09:28;28.70;56.90
25732;DHT22;13585;50.864;4.406;2023-09-08T06:11:53;28.70;57.00
25732;DHT22;13585;50.864;4.406;2023-09-08T06:14:19;28.70;57.00
25732;DHT22;13585;50.864;4.406;2023-09-08T06:16:45;28.60;57.00
25732;DHT22;13585;50.864;4.406;2023-09-08T06:19:12;28.60;57.00
25732;DHT22;13585;50.864;4.406;2023-09-08T06:21:37;28.60;57.10
25732;DHT22;13585;50.864;4.406;2023-09-08T06:24:03;28.60;57.20
25732;DHT22;13585;50.864;4.406;2023-09-08T06:26:29;28.60;57.10
25732;DHT22;13585;50.864;4.406;2023-09-08T06:28:55;28.70;57.20
25732;DHT22;13585;50.864;4.406;2023-09-08T06:31:20;28.60;57.10
25732;DHT22;13585;50.864;4.406;2023-09-08T06:33:46;28.70;57.10
25732;DHT22;13585;50.864;4.406;2023-09-08T06:36:11;28.70;57.10
25732;DHT22;13585;50.864;4.406;2023-09-08T06:38:37;28.70;57.00
25732;DHT22;13585;50.864;4.406;2023-09-08T06:41:11;28.70;57.10
25732;DHT22;13585;50.864;4.406;2023-09-08T06:43:37;28.70;57.10
25732;DHT22;13585;50.864;4.406;2023-09-08T06:46:03;28.70;57.00
25732;DHT22;13585;50.864;4.406;2023-09-08T06:48:30;28.70;57.00
25732;DHT22;13585;50.864;4.406;2023-09-08T06:50:55;28.70;57.00
25732;DHT22;13585;50.864;4.406;2023-09-08T06:53:22;28.70;57.00
25732;DHT22;13585;50.864;4.406;2023-09-08T06:55:48;28.70;57.00
25732;DHT22;13585;50.864;4.406;2023-09-08T06:58:13;28.70;57.00
25732;DHT22;13585;50.864;4.406;2023-09-08T07:00:42;28.70;57.00
25732;DHT22;13585;50.864;4.406;2023-09-08T07:03:08;28.70;57.00
25732;DHT22;13585;50.864;4.406;2023-09-08T07:05:34;28.70;57.00
25732;DHT22;13585;50.864;4.406;2023-09-08T07:08:00;28.70;57.00
25732;DHT22;13585;50.864;4.406;2023-09-08T07:10:25;28.70;57.00
25732;DHT22;13585;50.864;4.406;2023-09-08T07:12:51;28.80;57.10
25732;DHT22;13585;50.864;4.406;2023-09-08T07:15:17;28.80;57.10
25732;DHT22;13585;50.864;4.406;2023-09-08T07:17:42;28.70;57.00
25732;DHT22;13585;50.864;4.406;2023-09-08T07:20:08;28.80;57.00
25732;DHT22;13585;50.864;4.406;2023-09-08T07:22:34;28.70;57.00
25732;DHT22;13585;50.864;4.406;2023-09-08T07:25:00;28.70;57.00
25732;DHT22;13585;50.864;4.406;2023-09-08T07:27:25;28.70;57.00
25732;DHT22;13585;50.864;4.406;2023-09-08T07:29:51;28.70;57.00
25732;DHT22;13585;50.864;4.406;2023-09-08T07:32:17;28.70;57.00
25732;DHT22;13585;50.864;4.406;2023-09-08T07:34:43;28.70;57.00
25732;DHT22;13585;50.864;4.406;2023-09-08T07:37:09;28.70;57.00
25732;DHT22;13585;50.864;4.406;2023-09-08T07:39:34;28.70;57.00
25732;DHT22;13585;50.864;4.406;2023-09-08T07:42:01;28.70;56.90
25732;DHT22;13585;50.864;4.406;2023-09-08T07:44:27;28.80;56.90
25732;DHT22;13585;50.864;4.406;2023-09-08T07:46:52;28.70;57.00
25732;DHT22;13585;50.864;4.406;2023-09-08T07:49:20;28.70;56.90
25732;DHT22;13585;50.864;4.406;2023-09-08T07:51:46;28.70;56.90
25732;DHT22;13585;50.864;4.406;2023-09-08T07:54:12;28.80;57.00
25732;DHT22;13585;50.864;4.406;2023-09-08T07:56:38;28.80;56.90
25732;DHT22;13585;50.864;4.406;2023-09-08T07:59:06;28.80;56.90
25732;DHT22;13585;50.864;4.406;2023-09-08T08:01:32;28.80;56.90
25732;DHT22;13585;50.864;4.406;2023-09-08T08:03:58;28.80;57.00
25732;DHT22;13585;50.864;4.406;2023-09-08T08:06:24;28.80;57.00
25732;DHT22;13585;50.864;4.406;2023-09-08T08:08:49;28.80;57.00
25732;DHT22;13585;50.864;4.406;2023-09-08T08:11:16;28.80;57.00
25732;DHT22;13585;50.864;4.406;2023-09-08T08:13:43;28.80;57.00
25732;DHT22;13585;50.864;4.406;2023-09-08T08:16:09;28.80;57.00
25732;DHT22;13585;50.864;4.406;2023-09-08T08:18:35;28.80;57.00
25732;DHT22;13585;50.864;4.406;2023-09-08T08:21:00;28.80;57.10
25732;DHT22;13585;50.864;4.406;2023-09-08T08:23:29;28.80;57.10
25732;DHT22;13585;50.864;4.406;2023-09-08T08:25:55;28.80;57.10
25732;DHT22;13585;50.864;4.406;2023-09-08T08:28:21;28.90;57.10
25732;DHT22;13585;50.864;4.406;2023-09-08T08:30:47;28.90;57.10
25732;DHT22;13585;50.864;4.406;2023-09-08T08:33:13;28.90;57.10
25732;DHT22;13585;50.864;4.406;2023-09-08T08:35:39;28.90;57.10
25732;DHT22;13585;50.864;4.406;2023-09-08T08:38:05;28.90;57.10
25732;DHT22;13585;50.864;4.406;2023-09-08T08:43:07;28.90;57.10
25732;DHT22;13585;50.864;4.406;2023-09-08T08:45:37;28.90;57.20
25732;DHT22;13585;50.864;4.406;2023-09-08T08:48:25;28.90;57.20
25732;DHT22;13585;50.864;4.406;2023-09-08T08:51:01;29.00;57.30
25732;DHT22;13585;50.864;4.406;2023-09-08T08:53:32;28.90;57.30
25732;DHT22;13585;50.864;4.406;2023-09-08T08:55:59;29.00;57.30
25732;DHT22;13585;50.864;4.406;2023-09-08T08:58:26;29.00;57.50
25732;DHT22;13585;50.864;4.406;2023-09-08T09:00:53;29.00;57.50
25732;DHT22;13585;50.864;4.406;2023-09-08T09:03:24;29.00;57.60
25732;DHT22;13585;50.864;4.406;2023-09-08T09:05:51;29.00;57.60
25732;DHT22;13585;50.864;4.406;2023-09-08T09:08:18;29.00;57.70
25732;DHT22;13585;50.864;4.406;2023-09-08T09:10:43;29.00;57.70
25732;DHT22;13585;50.864;4.406;2023-09-08T09:13:09;29.00;57.80
25732;DHT22;13585;50.864;4.406;2023-09-08T09:15:35;29.00;57.70
25732;DHT22;13585;50.864;4.406;2023-09-08T09:18:05;29.00;57.80
25732;DHT22;13585;50.864;4.406;2023-09-08T09:20:31;29.00;57.80
25732;DHT22;13585;50.864;4.406;2023-09-08T09:22:57;29.00;57.80
25732;DHT22;13585;50.864;4.406;2023-09-08T09:25:28;29.10;57.90
25732;DHT22;13585;50.864;4.406;2023-09-08T09:27:55;29.00;57.90
25732;DHT22;13585;50.864;4.406;2023-09-08T09:30:22;29.00;57.90
25732;DHT22;13585;50.864;4.406;2023-09-08T09:32:58;29.00;58.00
25732;DHT22;13585;50.864;4.406;2023-09-08T09:35:40;29.10;58.10
25732;DHT22;13585;50.864;4.406;2023-09-08T09:38:05;29.00;58.20
25732;DHT22;13585;50.864;4.406;2023-09-08T09:40:31;29.20;57.90
25732;DHT22;13585;50.864;4.406;2023-09-08T09:42:58;29.10;57.80
25732;DHT22;13585;50.864;4.406;2023-09-08T09:45:25;29.10;58.10
25732;DHT22;13585;50.864;4.406;2023-09-08T09:47:52;29.00;58.60
25732;DHT22;13585;50.864;4.406;2023-09-08T09:50:28;29.00;58.50
25732;DHT22;13585;50.864;4.406;2023-09-08T09:52:57;29.00;58.30
25732;DHT22;13585;50.864;4.406;2023-09-08T09:55:24;29.00;58.30
25732;DHT22;13585;50.864;4.406;2023-09-08T09:57:53;29.10;60.40
25732;DHT22;13585;50.864;4.406;2023-09-08T10:00:21;29.10;58.40
25732;DHT22;13585;50.864;4.406;2023-09-08T10:02:47;29.00;58.40
25732;DHT22;13585;50.864;4.406;2023-09-08T10:05:13;29.10;58.50
25732;DHT22;13585;50.864;4.406;2023-09-08T10:07:42;29.10;58.50
25732;DHT22;13585;50.864;4.406;2023-09-08T10:10:09;29.00;58.50
25732;DHT22;13585;50.864;4.406;2023-09-08T10:12:38;29.00;58.40
25732;DHT22;13585;50.864;4.406;2023-09-08T10:15:06;29.10;58.60
25732;DHT22;13585;50.864;4.406;2023-09-08T10:17:33;29.10;58.60
25732;DHT22;13585;50.864;4.406;2023-09-08T10:20:01;29.10;58.60
25732;DHT22;13585;50.864;4.406;2023-09-08T10:22:35;29.10;58.60
25732;DHT22;13585;50.864;4.406;2023-09-08T10:25:04;29.10;58.50
25732;DHT22;13585;50.864;4.406;2023-09-08T10:27:31;29.10;58.50
25732;DHT22;13585;50.864;4.406;2023-09-08T10:30:00;29.20;58.50
25732;DHT22;13585;50.864;4.406;2023-09-08T10:32:26;29.20;58.40
25732;DHT22;13585;50.864;4.406;2023-09-08T10:34:52;29.20;58.40
25732;DHT22;13585;50.864;4.406;2023-09-08T10:37:25;29.20;58.40
25732;DHT22;13585;50.864;4.406;2023-09-08T10:39:54;29.20;58.40
25732;DHT22;13585;50.864;4.406;2023-09-08T10:47:31;29.30;58.30
25732;DHT22;13585;50.864;4.406;2023-09-08T10:49:59;29.30;58.30
25732;DHT22;13585;50.864;4.406;2023-09-08T10:52:26;29.40;58.00
25732;DHT22;13585;50.864;4.406;2023-09-08T10:54:53;29.40;57.80
25732;DHT22;13585;50.864;4.406;2023-09-08T10:57:24;29.40;57.90
25732;DHT22;13585;50.864;4.406;2023-09-08T10:59:58;29.30;58.00
25732;DHT22;13585;50.864;4.406;2023-09-08T11:02:48;29.30;58.00
25732;DHT22;13585;50.864;4.406;2023-09-08T11:05:16;29.30;58.10
25732;DHT22;13585;50.864;4.406;2023-09-08T11:07:43;29.40;58.00
25732;DHT22;13585;50.864;4.406;2023-09-08T11:10:13;29.40;58.00
25732;DHT22;13585;50.864;4.406;2023-09-08T11:12:39;29.40;57.90
25732;DHT22;13585;50.864;4.406;2023-09-08T11:17:33;29.40;57.80
25732;DHT22;13585;50.864;4.406;2023-09-08T11:20:00;29.40;57.80
25732;DHT22;13585;50.864;4.406;2023-09-08T11:22:29;29.40;57.80
25732;DHT22;13585;50.864;4.406;2023-09-08T11:24:58;29.40;57.80
25732;DHT22;13585;50.864;4.406;2023-09-08T11:27:24;29.40;57.80
25732;DHT22;13585;50.864;4.406;2023-09-08T11:29:50;29.40;57.70
25732;DHT22;13585;50.864;4.406;2023-09-08T11:32:16;29.40;57.70
25732;DHT22;13585;50.864;4.406;2023-09-08T11:34:42;29.40;57.60
25732;DHT22;13585;50.864;4.406;2023-09-08T11:37:17;29.40;57.60
25732;DHT22;13585;50.864;4.406;2023-09-08T11:39:45;29.50;57.70
25732;DHT22;13585;50.864;4.406;2023-09-08T11:42:14;29.50;57.60
25732;DHT22;13585;50.864;4.406;2023-09-08T11:44:41;29.40;57.50
25732;DHT22;13585;50.864;4.406;2023-09-08T11:47:08;29.40;57.50
25732;DHT22;13585;50.864;4.406;2023-09-08T11:49:39;29.50;57.50
25732;DHT22;13585;50.864;4.406;2023-09-08T11:52:11;29.40;57.40
25732;DHT22;13585;50.864;4.406;2023-09-08T11:54:37;29.50;57.50
25732;DHT22;13585;50.864;4.406;2023-09-08T11:57:07;29.50;57.40
25732;DHT22;13585;50.864;4.406;2023-09-08T11:59:38;29.50;57.30
25732;DHT22;13585;50.864;4.406;2023-09-08T12:02:10;29.50;57.20
25732;DHT22;13585;50.864;4.406;2023-09-08T12:07:01;29.50;56.40
25732;DHT22;13585;50.864;4.406;2023-09-08T12:09:49;29.60;56.30
25732;DHT22;13585;50.864;4.406;2023-09-08T12:12:15;29.50;56.00
25732;DHT22;13585;50.864;4.406;2023-09-08T12:14:42;29.50;56.50
25732;DHT22;13585;50.864;4.406;2023-09-08T12:17:08;29.50;56.50
25732;DHT22;13585;50.864;4.406;2023-09-08T12:19:35;29.40;56.20
25732;DHT22;13585;50.864;4.406;2023-09-08T12:22:05;29.50;56.00
25732;DHT22;13585;50.864;4.406;2023-09-08T12:27:22;29.50;55.80
25732;DHT22;13585;50.864;4.406;2023-09-08T12:29:59;29.50;55.30
25732;DHT22;13585;50.864;4.406;2023-09-08T12:32:28;29.50;60.30
25732;DHT22;13585;50.864;4.406;2023-09-08T12:34:54;29.50;55.50
25732;DHT22;13585;50.864;4.406;2023-09-08T12:37:24;29.50;56.10
25732;DHT22;13585;50.864;4.406;2023-09-08T12:39:50;29.50;55.50
25732;DHT22;13585;50.864;4.406;2023-09-08T12:42:18;29.50;55.50
25732;DHT22;13585;50.864;4.406;2023-09-08T12:44:45;29.50;55.50
25732;DHT22;13585;50.864;4.406;2023-09-08T12:47:11;29.50;55.50
25732;DHT22;13585;50.864;4.406;2023-09-08T12:49:40;29.50;55.50
25732;DHT22;13585;50.864;4.406;2023-09-08T12:52:06;29.50;55.50
25732;DHT22;13585;50.864;4.406;2023-09-08T12:54:32;29.50;55.60
25732;DHT22;13585;50.864;4.406;2023-09-08T12:56:57;29.50;55.60
25732;DHT22;13585;50.864;4.406;2023-09-08T12:59:23;29.50;55.80
25732;DHT22;13585;50.864;4.406;2023-09-08T13:01:48;29.50;55.60
25732;DHT22;13585;50.864;4.406;2023-09-08T13:04:14;29.50;55.50
25732;DHT22;13585;50.864;4.406;2023-09-08T13:06:40;29.60;55.60
25732;DHT22;13585;50.864;4.406;2023-09-08T13:09:06;29.60;55.50
25732;DHT22;13585;50.864;4.406;2023-09-08T13:11:32;29.60;55.50
25732;DHT22;13585;50.864;4.406;2023-09-08T13:13:58;29.60;55.50
25732;DHT22;13585;50.864;4.406;2023-09-08T13:16:24;29.60;55.50
25732;DHT22;13585;50.864;4.406;2023-09-08T13:18:50;29.60;55.50
25732;DHT22;13585;50.864;4.406;2023-09-08T13:21:16;29.60;55.50
25732;DHT22;13585;50.864;4.406;2023-09-08T13:23:42;29.70;55.60
25732;DHT22;13585;50.864;4.406;2023-09-08T13:26:08;29.70;55.50
25732;DHT22;13585;50.864;4.406;2023-09-08T13:28:33;29.70;55.60
25732;DHT22;13585;50.864;4.406;2023-09-08T13:30:59;29.70;55.20
25732;DHT22;13585;50.864;4.406;2023-09-08T13:35:51;29.70;55.10
25732;DHT22;13585;50.864;4.406;2023-09-08T13:38:16;29.70;55.70
25732;DHT22;13585;50.864;4.406;2023-09-08T13:40:42;29.70;55.80
25732;DHT22;13585;50.864;4.406;2023-09-08T13:43:08;29.70;55.90
25732;DHT22;13585;50.864;4.406;2023-09-08T13:45:33;29.70;55.90
25732;DHT22;13585;50.864;4.406;2023-09-08T13:47:59;29.70;55.90
25732;DHT22;13585;50.864;4.406;2023-09-08T13:50:24;29.70;55.90
25732;DHT22;13585;50.864;4.406;2023-09-08T13:52:50;29.80;55.80
25732;DHT22;13585;50.864;4.406;2023-09-08T13:55:16;29.80;55.70
25732;DHT22;13585;50.864;4.406;2023-09-08T13:57:42;29.80;55.70
25732;DHT22;13585;50.864;4.406;2023-09-08T14:00:08;29.80;55.70
25732;DHT22;13585;50.864;4.406;2023-09-08T14:02:34;29.80;55.70
25732;DHT22;13585;50.864;4.406;2023-09-08T14:05:00;29.80;55.70
25732;DHT22;13585;50.864;4.406;2023-09-08T14:07:25;29.90;55.80
25732;DHT22;13585;50.864;4.406;2023-09-08T14:09:51;29.90;55.80
25732;DHT22;13585;50.864;4.406;2023-09-08T14:12:16;29.90;55.80
25732;DHT22;13585;50.864;4.406;2023-09-08T14:14:42;29.90;55.80
25732;DHT22;13585;50.864;4.406;2023-09-08T14:17:08;29.90;55.90
25732;DHT22;13585;50.864;4.406;2023-09-08T14:19:33;29.90;55.90
25732;DHT22;13585;50.864;4.406;2023-09-08T14:21:59;29.90;55.90
25732;DHT22;13585;50.864;4.406;2023-09-08T14:24:25;29.90;55.90
25732;DHT22;13585;50.864;4.406;2023-09-08T14:26:51;29.90;56.00
25732;DHT22;13585;50.864;4.406;2023-09-08T14:29:17;29.90;56.00
25732;DHT22;13585;50.864;4.406;2023-09-08T14:31:43;29.90;56.10
25732;DHT22;13585;50.864;4.406;2023-09-08T14:34:09;30.00;56.10
25732;DHT22;13585;50.864;4.406;2023-09-08T14:36:34;29.90;56.10
25732;DHT22;13585;50.864;4.406;2023-09-08T14:39:00;29.90;56.20
25732;DHT22;13585;50.864;4.406;2023-09-08T14:41:26;30.00;56.20
25732;DHT22;13585;50.864;4.406;2023-09-08T14:43:54;30.00;56.20
25732;DHT22;13585;50.864;4.406;2023-09-08T14:46:29;30.00;56.20
25732;DHT22;13585;50.864;4.406;2023-09-08T14:48:54;29.90;56.30
25732;DHT22;13585;50.864;4.406;2023-09-08T14:51:20;29.90;56.30
25732;DHT22;13585;50.864;4.406;2023-09-08T14:53:46;29.90;56.40
25732;DHT22;13585;50.864;4.406;2023-09-08T14:56:11;29.90;56.40
25732;DHT22;13585;50.864;4.406;2023-09-08T14:58:37;29.90;56.40
25732;DHT22;13585;50.864;4.406;2023-09-08T15:01:04;29.90;56.40
25732;DHT22;13585;50.864;4.406;2023-09-08T15:03:35;29.90;56.30
25732;DHT22;13585;50.864;4.406;2023-09-08T15:06:01;29.90;56.30
25732;DHT22;13585;50.864;4.406;2023-09-08T15:08:28;30.00;56.40
25732;DHT22;13585;50.864;4.406;2023-09-08T15:10:54;30.00;56.30
25732;DHT22;13585;50.864;4.406;2023-09-08T15:13:19;30.00;56.40
25732;DHT22;13585;50.864;4.406;2023-09-08T15:15:51;29.90;56.20
25732;DHT22;13585;50.864;4.406;2023-09-08T15:18:16;29.90;55.80
25732;DHT22;13585;50.864;4.406;2023-09-08T15:20:54;30.10;56.30
25732;DHT22;13585;50.864;4.406;2023-09-08T15:23:20;30.00;56.20
25732;DHT22;13585;50.864;4.406;2023-09-08T15:25:53;30.00;56.90
25732;DHT22;13585;50.864;4.406;2023-09-08T15:28:19;29.90;56.40
25732;DHT22;13585;50.864;4.406;2023-09-08T15:30:52;29.90;56.50
25732;DHT22;13585;50.864;4.406;2023-09-08T15:33:34;29.90;56.60
25732;DHT22;13585;50.864;4.406;2023-09-08T15:35:59;29.90;56.70
25732;DHT22;13585;50.864;4.406;2023-09-08T15:38:34;29.90;56.70
25732;DHT22;13585;50.864;4.406;2023-09-08T15:43:42;29.90;57.00
25732;DHT22;13585;50.864;4.406;2023-09-08T15:46:08;30.10;56.90
25732;DHT22;13585;50.864;4.406;2023-09-08T15:48:34;30.10;56.70
25732;DHT22;13585;50.864;4.406;2023-09-08T15:51:20;30.00;56.80
25732;DHT22;13585;50.864;4.406;2023-09-08T15:53:52;30.00;56.90